Portada
METAR-TAF:

METAR-TAF

Aeroports :

Meknès, Marroc

latitud: 33-53N, longitud: 005-32W, altitud: 576 m

METAR: manca

Hora: 11:45 (10:45 UTC)

Pronòstic

L'informe es va fer fa 5 hores i 45 minuts, a les 05:00 UTC
Pronòstic vàlid del 30 a les 06 UTC al 31 a les 12 UTC
Vent 6 kt del Est
Visibilitat 10 km o més
sense núvols per sota de 1500 mi sense presència de cumulonimbus.
Evolucionant progressivament
l' 30 a les 12 UTC al 30 a les 16 UTC
Vent 10 kt del Nord-Oest
Escasses núvols a una alçada de 2300 ft, Cumulus congestus.
Evolucionant progressivament
l' 30 a les 18 UTC al 30 a les 22 UTC
Vent 3 kt amb direcció variable
Visibilitat: 8000 m
Cel ennuvolat a una alçada de 2000 ft

TAF: GMFM 300500Z 3006/3112 10006KT CAVOK BECMG 3012/3016 31010KT FEW023TCU BECMG 3018/3022 VRB03KT 8000 BKN020

Observacions i pronòstics meteorològics de més de 4000 aeroports (METAR i TAF).

Les estacions disponibles són els punts grocs i vermells al mapa.

Posi el ratolí al punt desitjat per veure el nom de l'estació.

Feu clic per veure les observacions i els pronòstics meteorològics.

Per canviar el mapa: feu clic els botons verds amb una creu de color negre per apropar; al botó verd amb un guió per allunyar la imatge; o en les fletxes verdes per a mapes adjacents.


METAR-TAF: